createdAt,value
2023-05-23T00:00:44.636Z,16.10
2023-05-23T00:03:11.260Z,16.30
2023-05-23T00:05:36.233Z,16.40
2023-05-23T00:08:01.379Z,16.40
2023-05-23T00:10:26.134Z,16.30
2023-05-23T00:12:50.876Z,16.40
2023-05-23T00:15:16.803Z,16.50
2023-05-23T00:17:41.768Z,16.80
2023-05-23T00:20:09.563Z,17.40
2023-05-23T00:22:34.181Z,18.00
2023-05-23T00:25:02.257Z,18.40
2023-05-23T00:27:29.400Z,18.60
2023-05-23T00:29:53.965Z,18.70
2023-05-23T00:32:19.849Z,18.80
2023-05-23T00:34:45.428Z,18.70
2023-05-23T00:37:10.046Z,18.30
2023-05-23T00:39:34.582Z,18.10
2023-05-23T00:41:59.123Z,18.00
2023-05-23T00:44:23.698Z,17.60
2023-05-23T00:46:53.120Z,17.40
2023-05-23T00:49:20.409Z,17.40
2023-05-23T00:51:45.717Z,17.30
2023-05-23T00:54:11.230Z,17.60
2023-05-23T00:56:36.911Z,18.00
2023-05-23T00:59:02.223Z,18.40
2023-05-23T01:01:27.721Z,18.10
2023-05-23T01:03:52.549Z,17.80
2023-05-23T01:06:18.796Z,17.50
2023-05-23T01:08:44.665Z,17.70
2023-05-23T01:11:16.986Z,17.40
2023-05-23T01:13:49.000Z,17.10
2023-05-23T01:16:18.595Z,16.90
2023-05-23T01:18:50.532Z,17.00
2023-05-23T01:21:19.854Z,17.20
2023-05-23T01:24:16.866Z,17.50
2023-05-23T01:26:56.805Z,18.00
2023-05-23T01:29:26.228Z,18.10
2023-05-23T01:31:54.489Z,18.20
2023-05-23T01:34:21.645Z,18.50
2023-05-23T01:36:46.772Z,18.60
2023-05-23T01:39:13.274Z,18.00
2023-05-23T01:41:37.959Z,17.60
2023-05-23T01:44:03.873Z,17.40
2023-05-23T01:46:31.042Z,17.10
2023-05-23T01:48:56.854Z,16.80
2023-05-23T01:51:22.697Z,16.70
2023-05-23T01:53:47.406Z,16.70
2023-05-23T01:56:12.485Z,16.50
2023-05-23T01:58:37.027Z,16.90
2023-05-23T02:01:01.797Z,17.30
2023-05-23T02:03:27.871Z,17.80
2023-05-23T02:05:52.669Z,18.30
2023-05-23T02:08:17.271Z,18.90
2023-05-23T02:10:43.034Z,19.20
2023-05-23T02:13:07.722Z,19.50
2023-05-23T02:15:32.589Z,19.80
2023-05-23T02:17:57.372Z,20.10
2023-05-23T02:20:23.494Z,20.30
2023-05-23T02:22:48.545Z,20.40
2023-05-23T02:25:13.247Z,20.50
2023-05-23T02:27:37.727Z,20.60
2023-05-23T02:30:02.718Z,20.70
2023-05-23T02:32:31.267Z,20.80
2023-05-23T02:34:57.238Z,20.90
2023-05-23T02:37:23.963Z,21.00
2023-05-23T02:39:48.544Z,20.90
2023-05-23T02:42:13.057Z,21.00
2023-05-23T02:44:37.620Z,21.10
2023-05-23T02:47:02.176Z,21.10
2023-05-23T02:49:26.851Z,21.20
2023-05-23T02:51:51.837Z,21.20
2023-05-23T02:54:18.188Z,21.30
2023-05-23T02:56:42.783Z,21.20
2023-05-23T02:59:07.650Z,21.30
2023-05-23T03:01:32.276Z,21.30
2023-05-23T03:03:57.317Z,21.50
2023-05-23T03:06:22.875Z,21.40
2023-05-23T03:08:47.570Z,21.50
2023-05-23T03:11:14.368Z,21.30
2023-05-23T03:13:42.353Z,21.40
2023-05-23T03:16:07.252Z,21.60
2023-05-23T03:18:31.760Z,21.70
2023-05-23T03:20:56.390Z,21.90
2023-05-23T03:23:27.012Z,22.10
2023-05-23T03:25:51.521Z,22.10
2023-05-23T03:28:17.414Z,22.30
2023-05-23T03:30:42.904Z,22.40
2023-05-23T03:33:08.510Z,22.20
2023-05-23T03:35:34.115Z,22.20
2023-05-23T03:37:58.800Z,22.40
2023-05-23T03:40:25.503Z,22.50
2023-05-23T03:42:50.781Z,22.70
2023-05-23T03:45:18.331Z,22.70
2023-05-23T03:47:44.716Z,22.80
2023-05-23T03:50:10.381Z,23.00
2023-05-23T03:52:35.724Z,23.10
2023-05-23T03:55:00.293Z,23.10
2023-05-23T03:57:25.236Z,23.20
2023-05-23T03:59:49.752Z,23.30
2023-05-23T04:02:15.841Z,23.40
2023-05-23T04:04:41.290Z,23.50
2023-05-23T04:07:06.576Z,23.50
2023-05-23T04:09:32.205Z,23.30
2023-05-23T04:11:59.013Z,23.30
2023-05-23T04:14:25.378Z,23.30
2023-05-23T04:16:50.694Z,23.20
2023-05-23T04:19:17.913Z,23.30
2023-05-23T04:21:42.502Z,23.50
2023-05-23T04:24:09.526Z,23.70
2023-05-23T04:26:36.314Z,24.00
2023-05-23T04:29:02.139Z,24.10
2023-05-23T04:31:27.258Z,24.20
2023-05-23T04:33:51.827Z,23.70
2023-05-23T04:36:19.116Z,23.10
2023-05-23T04:38:48.565Z,22.50
2023-05-23T04:41:13.329Z,22.30
2023-05-23T04:43:42.670Z,22.20
2023-05-23T04:46:19.058Z,22.50
2023-05-23T04:48:46.760Z,22.90
2023-05-23T04:51:11.660Z,23.20
2023-05-23T04:53:48.022Z,23.60
2023-05-23T04:56:12.921Z,23.80
2023-05-23T04:58:38.033Z,24.10
2023-05-23T05:01:06.793Z,24.10
2023-05-23T05:03:31.961Z,24.30
2023-05-23T05:05:58.358Z,24.60
2023-05-23T05:08:25.093Z,24.60
2023-05-23T05:10:51.307Z,25.00
2023-05-23T05:13:17.982Z,25.30
2023-05-23T05:15:48.382Z,25.50
2023-05-23T05:18:13.778Z,25.80
2023-05-23T05:20:39.517Z,25.90
2023-05-23T05:23:04.424Z,25.90
2023-05-23T05:25:32.299Z,26.10
2023-05-23T05:27:58.316Z,26.20
2023-05-23T05:30:24.496Z,26.00
2023-05-23T05:32:53.774Z,26.10
2023-05-23T05:35:18.569Z,26.10
2023-05-23T05:37:44.485Z,26.10
2023-05-23T05:40:10.937Z,26.20
2023-05-23T05:42:39.995Z,26.40
2023-05-23T05:45:09.526Z,26.40
2023-05-23T05:47:34.990Z,26.60
2023-05-23T05:49:59.725Z,26.80
2023-05-23T05:52:24.846Z,27.10
2023-05-23T05:54:49.788Z,27.30
2023-05-23T05:57:14.424Z,27.10
2023-05-23T05:59:39.315Z,26.90
2023-05-23T06:02:06.078Z,27.00
2023-05-23T06:04:30.719Z,27.20
2023-05-23T06:06:56.654Z,27.30
2023-05-23T06:09:21.983Z,27.60
2023-05-23T06:11:47.005Z,27.40
2023-05-23T06:14:12.973Z,26.60
2023-05-23T06:16:41.532Z,26.50
2023-05-23T06:19:08.695Z,25.60
2023-05-23T06:21:34.574Z,24.80
2023-05-23T06:24:03.187Z,24.70
2023-05-23T06:26:28.401Z,24.90
2023-05-23T06:28:52.937Z,24.70
2023-05-23T06:31:17.708Z,24.60
2023-05-23T06:33:43.062Z,24.80
2023-05-23T06:36:10.117Z,24.60
2023-05-23T06:38:34.879Z,24.40
2023-05-23T06:40:59.334Z,24.00
2023-05-23T06:43:26.002Z,23.70
2023-05-23T06:45:51.367Z,23.70
2023-05-23T06:48:16.024Z,24.00
2023-05-23T06:50:42.567Z,24.30
2023-05-23T06:53:10.081Z,24.80
2023-05-23T06:55:35.004Z,25.20
2023-05-23T06:57:59.652Z,25.40
2023-05-23T07:00:26.298Z,25.40
2023-05-23T07:03:23.633Z,25.30
2023-05-23T07:05:48.887Z,25.10
2023-05-23T07:08:17.056Z,24.90
2023-05-23T07:10:56.131Z,24.90
2023-05-23T07:13:28.327Z,25.30
2023-05-23T07:15:55.814Z,25.50
2023-05-23T07:18:21.860Z,25.20
2023-05-23T07:20:46.706Z,25.00
2023-05-23T07:23:16.421Z,25.10
2023-05-23T07:25:53.801Z,25.00
2023-05-23T07:28:27.791Z,25.20
2023-05-23T07:30:53.198Z,25.70
2023-05-23T07:33:18.017Z,25.70
2023-05-23T07:35:45.062Z,25.30
2023-05-23T07:38:11.906Z,25.30
